createdAt,value
2022-09-05T00:02:02.072Z,23.31
2022-09-05T00:04:32.011Z,23.23
2022-09-05T00:07:38.774Z,23.19
2022-09-05T00:10:22.170Z,23.38
2022-09-05T00:12:51.265Z,23.28
2022-09-05T00:15:44.059Z,23.53
2022-09-05T00:23:31.977Z,23.72
2022-09-05T00:24:28.427Z,23.74
2022-09-05T00:25:31.709Z,23.45
2022-09-05T00:28:14.543Z,23.57
2022-09-05T00:31:07.421Z,23.38
2022-09-05T00:34:10.514Z,23.24
2022-09-05T00:36:47.429Z,23.13
2022-09-05T00:39:19.752Z,23.08
2022-09-05T00:41:51.798Z,23.23
2022-09-05T00:44:24.231Z,23.24
2022-09-05T00:47:07.610Z,23.45
2022-09-05T00:49:40.810Z,23.51
2022-09-05T00:52:14.626Z,23.41
2022-09-05T00:54:53.717Z,23.39
2022-09-05T00:57:36.023Z,23.17
2022-09-05T01:00:10.831Z,23.11
2022-09-05T01:02:51.860Z,23.21
2022-09-05T01:05:38.357Z,23.03
2022-09-05T01:08:42.512Z,23.36
2022-09-05T01:11:47.304Z,23.32
2022-09-05T01:14:26.544Z,23.29
2022-09-05T01:17:17.875Z,23.23
2022-09-05T01:20:19.477Z,23.20
2022-09-05T01:22:59.147Z,23.09
2022-09-05T01:25:34.205Z,23.15
2022-09-05T01:29:15.524Z,23.15
2022-09-05T01:31:21.237Z,23.09
2022-09-05T01:34:31.950Z,23.08
2022-09-05T01:37:32.907Z,23.07
2022-09-05T01:40:17.248Z,23.11
2022-09-05T01:43:25.800Z,23.20
2022-09-05T01:46:15.684Z,23.32
2022-09-05T01:48:48.502Z,23.31
2022-09-05T01:51:29.189Z,23.38
2022-09-05T01:54:24.397Z,23.00
2022-09-05T01:57:21.409Z,22.99
2022-09-05T01:59:55.415Z,23.16
2022-09-05T02:02:36.703Z,23.03
2022-09-05T02:05:48.883Z,22.93
2022-09-05T02:08:16.378Z,22.86
2022-09-05T02:11:06.264Z,22.79
2022-09-05T02:13:36.209Z,22.83
2022-09-05T02:16:20.947Z,23.13
2022-09-05T02:19:06.639Z,23.17
2022-09-05T02:21:33.479Z,23.12
2022-09-05T02:24:30.564Z,22.43
2022-09-05T02:27:30.237Z,22.95
2022-09-05T02:30:08.323Z,23.27
2022-09-05T02:33:10.415Z,23.35
2022-09-05T02:35:45.954Z,23.03
2022-09-05T02:40:27.818Z,23.10
2022-09-05T02:45:12.505Z,22.91
2022-09-05T02:45:19.432Z,22.90
2022-09-05T02:47:40.423Z,23.03
2022-09-05T02:52:43.886Z,23.06
2022-09-05T02:57:32.960Z,22.99
2022-09-05T02:58:04.011Z,22.89
2022-09-05T02:59:35.916Z,23.05
2022-09-05T03:02:42.082Z,22.91
2022-09-05T03:05:10.531Z,23.13
2022-09-05T03:08:04.599Z,23.32
2022-09-05T03:10:54.592Z,23.23
2022-09-05T03:14:03.508Z,22.96
2022-09-05T03:16:38.596Z,23.28
2022-09-05T03:19:52.303Z,23.11
2022-09-05T03:22:41.001Z,23.27
2022-09-05T03:25:20.462Z,22.97
2022-09-05T03:28:15.203Z,23.13
2022-09-05T03:31:07.420Z,22.98
2022-09-05T03:34:02.457Z,22.94
2022-09-05T03:36:56.655Z,23.06
2022-09-05T03:39:32.473Z,22.87
2022-09-05T03:42:30.796Z,22.98
2022-09-05T03:45:05.522Z,22.97
2022-09-05T03:47:50.979Z,23.04
2022-09-05T03:57:05.747Z,22.80
2022-09-05T03:57:10.481Z,23.02
2022-09-05T03:57:17.337Z,22.77
2022-09-05T04:00:09.189Z,22.91
2022-09-05T04:08:09.353Z,22.73
2022-09-05T04:08:17.044Z,22.36
2022-09-05T04:08:43.289Z,22.84
2022-09-05T04:11:16.645Z,22.86
2022-09-05T04:13:59.563Z,22.84
2022-09-05T04:16:46.929Z,22.97
2022-09-05T04:19:31.951Z,22.97
2022-09-05T04:22:20.403Z,22.86
2022-09-05T04:25:04.868Z,22.63
2022-09-05T04:27:51.468Z,22.67
2022-09-05T04:30:43.394Z,22.54
2022-09-05T04:33:40.122Z,22.74
2022-09-05T04:36:18.339Z,22.89
2022-09-05T04:38:46.437Z,22.60
2022-09-05T04:41:16.435Z,22.70
2022-09-05T04:43:55.472Z,22.68
2022-09-05T04:46:48.237Z,22.60
2022-09-05T04:49:33.139Z,22.27
2022-09-05T04:52:02.781Z,22.55
2022-09-05T04:54:48.463Z,22.46
2022-09-05T04:57:44.530Z,22.71
2022-09-05T05:05:58.697Z,22.88
2022-09-05T05:06:08.226Z,22.83
2022-09-05T05:09:04.753Z,22.93
2022-09-05T05:15:56.603Z,22.80
2022-09-05T05:17:55.852Z,22.94
2022-09-05T05:18:36.464Z,22.93
2022-09-05T05:21:07.076Z,22.80
2022-09-05T05:23:38.849Z,22.77
2022-09-05T05:26:10.002Z,22.84
2022-09-05T05:28:50.962Z,23.02
2022-09-05T05:31:21.980Z,23.12
2022-09-05T05:33:51.163Z,23.03
2022-09-05T05:36:29.000Z,23.26
2022-09-05T05:39:08.486Z,23.03
2022-09-05T05:41:48.800Z,23.17
2022-09-05T05:44:22.313Z,23.51
2022-09-05T05:47:04.337Z,23.47
2022-09-05T05:49:42.817Z,23.38
2022-09-05T05:52:27.907Z,24.18
2022-09-05T05:55:50.764Z,25.63
2022-09-05T05:58:17.164Z,27.67
2022-09-05T06:01:21.916Z,28.57
2022-09-05T06:04:23.491Z,29.67
2022-09-05T06:07:02.344Z,30.13
2022-09-05T06:14:51.206Z,29.85
2022-09-05T06:14:56.909Z,30.30
2022-09-05T06:16:13.170Z,30.20
2022-09-05T06:19:12.485Z,29.90
2022-09-05T06:22:10.956Z,30.54
2022-09-05T06:24:54.395Z,30.51
2022-09-05T06:28:01.696Z,30.71
2022-09-05T06:30:26.726Z,31.30
2022-09-05T06:32:58.356Z,31.40
2022-09-05T06:35:31.588Z,32.87
2022-09-05T06:38:01.618Z,33.96
2022-09-05T06:40:32.030Z,34.28
2022-09-05T06:43:33.422Z,34.48
2022-09-05T06:46:03.346Z,35.20
2022-09-05T06:48:53.342Z,33.72
2022-09-05T06:52:09.759Z,31.39
2022-09-05T06:55:00.269Z,31.22
2022-09-05T06:57:54.577Z,30.67
2022-09-05T07:00:25.223Z,32.04
2022-09-05T07:03:10.199Z,33.00
2022-09-05T07:05:45.570Z,33.46
2022-09-05T07:08:36.593Z,31.62
2022-09-05T07:11:29.555Z,30.38
2022-09-05T07:14:16.504Z,30.49
2022-09-05T07:16:49.030Z,30.56
2022-09-05T07:19:26.069Z,31.03
2022-09-05T07:22:46.302Z,30.43
2022-09-05T07:25:18.217Z,31.44
2022-09-05T07:28:25.919Z,31.83
2022-09-05T07:31:04.422Z,32.40
2022-09-05T07:33:31.625Z,30.46
2022-09-05T07:36:06.893Z,30.81
2022-09-05T07:38:52.498Z,31.34
2022-09-05T07:41:30.592Z,30.90
2022-09-05T07:44:09.442Z,30.56
2022-09-05T07:46:39.260Z,30.28
2022-09-05T07:49:08.288Z,29.60
2022-09-05T07:56:55.289Z,30.91
2022-09-05T07:57:08.833Z,29.57
2022-09-05T07:57:31.398Z,30.14
2022-09-05T08:00:07.341Z,30.50
2022-09-05T08:02:54.583Z,30.40
2022-09-05T08:05:25.960Z,31.16
2022-09-05T08:08:03.994Z,30.59
2022-09-05T08:11:21.945Z,31.32
2022-09-05T08:13:27.081Z,30.97
2022-09-05T08:16:13.284Z,30.52
2022-09-05T08:18:51.793Z,30.61
2022-09-05T08:21:27.096Z,31.05
2022-09-05T08:24:14.439Z,31.64
2022-09-05T08:26:47.092Z,30.89
2022-09-05T08:29:35.543Z,30.87
2022-09-05T08:32:08.872Z,31.19
2022-09-05T08:34:46.588Z,31.08
2022-09-05T08:37:25.880Z,31.18
2022-09-05T08:40:09.654Z,30.66
2022-09-05T08:45:46.354Z,30.79
2022-09-05T08:46:43.803Z,31.05
2022-09-05T08:49:37.162Z,31.46
2022-09-05T08:52:27.766Z,31.00
2022-09-05T08:55:07.655Z,30.52
2022-09-05T08:57:47.034Z,30.73
2022-09-05T09:00:20.907Z,30.51
2022-09-05T09:02:57.242Z,30.78
2022-09-05T09:06:12.815Z,30.95
2022-09-05T09:08:46.175Z,30.96
2022-09-05T09:11:34.410Z,31.56
2022-09-05T09:14:30.444Z,31.51
2022-09-05T09:17:13.501Z,31.45
2022-09-05T09:19:52.262Z,30.97
2022-09-05T09:22:34.925Z,31.18
2022-09-05T09:25:15.055Z,31.52
2022-09-05T09:28:48.667Z,31.99
2022-09-05T09:31:17.154Z,31.65
2022-09-05T09:33:49.864Z,31.53
2022-09-05T09:36:42.288Z,31.60
2022-09-05T09:39:38.013Z,31.81
2022-09-05T09:42:09.228Z,31.26
2022-09-05T09:44:48.509Z,31.49
2022-09-05T09:47:22.329Z,31.58
2022-09-05T09:50:01.653Z,31.90
2022-09-05T09:52:40.472Z,31.81
2022-09-05T09:55:39.817Z,31.74
2022-09-05T09:58:13.688Z,31.79
2022-09-05T10:00:51.338Z,31.63
2022-09-05T10:10:23.312Z,31.69
2022-09-05T10:10:51.890Z,31.94
2022-09-05T10:10:52.851Z,31.99
2022-09-05T10:13:09.201Z,31.90
2022-09-05T10:15:39.644Z,31.79
2022-09-05T10:18:07.571Z,31.65
2022-09-05T10:20:53.908Z,32.00
2022-09-05T10:23:46.572Z,31.84
2022-09-05T10:26:22.512Z,31.59
2022-09-05T10:28:52.143Z,31.86
2022-09-05T10:32:14.973Z,31.07
2022-09-05T10:35:13.751Z,31.82
2022-09-05T10:37:11.020Z,31.51
2022-09-05T10:39:40.852Z,31.33
2022-09-05T10:42:15.726Z,31.72
2022-09-05T10:44:50.498Z,31.77
2022-09-05T10:47:30.465Z,32.05
2022-09-05T10:50:13.527Z,31.66
2022-09-05T10:53:09.932Z,31.61
2022-09-05T10:55:58.959Z,31.34
2022-09-05T11:01:27.626Z,31.45
2022-09-05T11:02:29.473Z,31.49
2022-09-05T11:04:49.835Z,31.34
2022-09-05T11:07:30.466Z,31.07
2022-09-05T11:10:04.933Z,31.42
2022-09-05T11:12:32.822Z,31.36
2022-09-05T11:15:02.585Z,31.42
2022-09-05T11:17:39.761Z,31.60
2022-09-05T11:20:22.516Z,31.35
2022-09-05T11:23:08.989Z,31.24
2022-09-05T11:25:40.669Z,31.57
2022-09-05T11:28:22.413Z,31.87
2022-09-05T11:30:53.469Z,31.68
2022-09-05T11:39:52.398Z,31.80
2022-09-05T11:39:55.069Z,31.59
2022-09-05T11:40:31.454Z,31.46
2022-09-05T11:43:43.105Z,31.53
2022-09-05T11:46:13.081Z,31.98
2022-09-05T11:49:24.368Z,32.08
2022-09-05T11:52:12.319Z,32.16
2022-09-05T11:55:20.722Z,31.70
2022-09-05T12:05:50.129Z,31.85
2022-09-05T12:08:00.721Z,31.88
2022-09-05T12:11:14.806Z,32.16
2022-09-05T12:14:21.028Z,32.16
2022-09-05T12:20:22.466Z,32.41
2022-09-05T12:23:06.247Z,32.34
2022-09-05T12:27:41.466Z,31.50
2022-09-05T12:33:32.267Z,32.03
2022-09-05T12:36:07.147Z,32.37
2022-09-05T12:40:54.149Z,31.96
2022-09-05T12:41:35.368Z,32.23
2022-09-05T12:41:37.361Z,32.02
2022-09-05T12:41:41.809Z,31.92
2022-09-05T12:42:10.985Z,32.34
2022-09-05T12:44:32.615Z,32.28
2022-09-05T12:46:48.632Z,32.13
2022-09-05T12:50:15.003Z,32.21
2022-09-05T12:52:59.890Z,32.60
2022-09-05T12:56:32.265Z,32.23
2022-09-05T13:02:56.002Z,32.39
2022-09-05T13:03:13.135Z,32.04
2022-09-05T13:05:02.824Z,32.38
2022-09-05T13:07:41.088Z,32.82
2022-09-05T13:13:26.124Z,32.34
2022-09-05T13:14:58.996Z,32.39
2022-09-05T13:16:03.527Z,31.98
2022-09-05T13:18:39.188Z,32.31
2022-09-05T13:21:27.204Z,32.46
2022-09-05T13:24:12.470Z,32.14
2022-09-05T13:26:47.536Z,32.17
2022-09-05T13:29:18.663Z,32.66
2022-09-05T13:37:55.424Z,32.05
2022-09-05T13:38:20.331Z,32.20
2022-09-05T14:01:09.566Z,32.20
2022-09-05T14:04:09.075Z,32.43
2022-09-05T14:07:43.939Z,32.25
2022-09-05T14:10:23.339Z,31.98
2022-09-05T14:13:04.422Z,32.39
2022-09-05T14:15:52.673Z,32.42
2022-09-05T14:18:30.153Z,31.85
2022-09-05T14:21:17.280Z,31.80
2022-09-05T14:23:53.671Z,31.98
2022-09-05T14:26:35.452Z,32.03
2022-09-05T14:29:20.644Z,32.17
2022-09-05T14:37:39.268Z,31.69
2022-09-05T14:37:50.982Z,32.04
2022-09-05T14:38:10.040Z,32.11
2022-09-05T14:41:12.617Z,32.09
2022-09-05T14:44:07.834Z,31.99
2022-09-05T14:47:06.941Z,32.02
2022-09-05T14:49:59.196Z,32.07
2022-09-05T14:52:28.677Z,31.81
2022-09-05T15:02:39.166Z,31.45
2022-09-05T15:02:48.565Z,31.29
2022-09-05T15:06:36.346Z,31.70
2022-09-05T15:11:24.447Z,31.61
2022-09-05T15:12:21.291Z,31.58
2022-09-05T15:14:43.055Z,31.50
2022-09-05T15:17:10.618Z,31.69
2022-09-05T15:20:06.236Z,31.44
2022-09-05T15:22:37.445Z,31.55
2022-09-05T15:25:17.262Z,31.30
2022-09-05T15:27:46.183Z,31.51
2022-09-05T15:30:35.908Z,31.49
2022-09-05T15:33:26.381Z,31.18
2022-09-05T15:35:56.619Z,31.43
2022-09-05T15:38:26.726Z,31.56
2022-09-05T15:41:18.139Z,31.53
2022-09-05T15:43:52.877Z,31.06
2022-09-05T15:46:30.942Z,30.39
2022-09-05T15:49:04.151Z,29.93
2022-09-05T15:51:55.198Z,29.58
2022-09-05T15:54:38.381Z,29.49
2022-09-05T15:57:18.026Z,29.08
2022-09-05T16:00:00.778Z,28.90
2022-09-05T16:03:25.791Z,29.06
2022-09-05T16:10:29.344Z,28.85
2022-09-05T16:24:59.212Z,29.56
2022-09-05T16:27:54.961Z,29.76
2022-09-05T16:30:24.157Z,29.77
2022-09-05T16:32:55.892Z,29.54
2022-09-05T16:35:26.232Z,29.33
2022-09-05T16:38:14.999Z,29.40
2022-09-05T16:41:04.076Z,29.21
2022-09-05T16:43:35.099Z,29.27
2022-09-05T16:46:11.139Z,29.27
2022-09-05T16:48:43.977Z,29.30
2022-09-05T16:51:35.443Z,29.41
2022-09-05T16:54:29.236Z,29.36
2022-09-05T16:57:00.546Z,29.45
2022-09-05T16:59:30.602Z,29.37
2022-09-05T17:02:07.491Z,29.27
2022-09-05T17:05:05.145Z,28.99
2022-09-05T17:07:42.221Z,28.72
2022-09-05T17:10:36.421Z,28.66
2022-09-05T17:13:04.056Z,28.73
2022-09-05T17:15:35.506Z,28.78
2022-09-05T17:18:21.651Z,28.74
2022-09-05T17:20:55.017Z,28.64
2022-09-05T17:29:17.890Z,28.61
2022-09-05T17:29:27.607Z,28.65
2022-09-05T17:32:39.566Z,28.77
2022-09-05T17:35:44.027Z,28.70
2022-09-05T17:38:35.281Z,28.63
2022-09-05T17:41:17.951Z,28.67
2022-09-05T17:44:03.285Z,28.62
2022-09-05T17:46:34.022Z,28.68
2022-09-05T17:49:18.204Z,28.67
2022-09-05T17:51:53.086Z,28.79
2022-09-05T17:54:28.720Z,28.67
2022-09-05T17:56:55.526Z,28.66
2022-09-05T17:59:23.276Z,28.63
2022-09-05T18:02:02.367Z,28.76
2022-09-05T18:04:47.451Z,28.74
2022-09-05T18:07:26.476Z,28.68
2022-09-05T18:10:15.198Z,28.60
2022-09-05T18:13:31.755Z,28.63
2022-09-05T18:15:32.748Z,28.63
2022-09-05T18:18:08.771Z,28.62
2022-09-05T18:21:21.105Z,28.56
2022-09-05T18:24:04.466Z,28.52
2022-09-05T18:26:39.713Z,28.51
2022-09-05T18:29:30.992Z,28.23
2022-09-05T18:32:12.177Z,28.18
2022-09-05T18:34:40.793Z,28.40
2022-09-05T18:37:51.661Z,28.47
2022-09-05T18:41:18.715Z,28.52
2022-09-05T18:44:13.095Z,28.51
2022-09-05T18:47:33.012Z,28.37
2022-09-05T18:50:26.379Z,28.38
2022-09-05T18:53:09.941Z,28.27
2022-09-05T18:56:21.393Z,28.38
2022-09-05T18:59:09.499Z,28.17
2022-09-05T19:01:58.766Z,28.05
2022-09-05T19:04:40.335Z,28.07
2022-09-05T19:07:16.661Z,28.08
2022-09-05T19:10:10.842Z,28.01
2022-09-05T19:12:59.329Z,27.80
2022-09-05T19:15:31.377Z,27.32
2022-09-05T19:18:26.222Z,26.90
2022-09-05T19:21:12.316Z,26.57
2022-09-05T19:23:50.636Z,26.43
2022-09-05T19:26:17.801Z,26.41
2022-09-05T19:36:44.622Z,26.44
2022-09-05T19:36:54.777Z,26.65
2022-09-05T19:37:22.527Z,26.61
2022-09-05T19:37:28.865Z,26.42
2022-09-05T19:47:25.355Z,26.28
2022-09-05T19:47:34.564Z,25.96
2022-09-05T19:47:39.460Z,26.27
2022-09-05T19:48:35.141Z,25.76
2022-09-05T19:51:16.501Z,25.56
2022-09-05T19:54:03.849Z,25.79
2022-09-05T19:56:37.855Z,25.73
2022-09-05T19:59:18.447Z,25.92
2022-09-05T20:01:46.942Z,25.54
2022-09-05T20:04:16.608Z,25.18
2022-09-05T20:06:48.004Z,25.13
2022-09-05T20:09:19.690Z,24.81
2022-09-05T20:11:52.523Z,24.81
2022-09-05T20:14:31.568Z,25.16
2022-09-05T20:17:21.116Z,25.16
2022-09-05T20:19:48.719Z,24.86
2022-09-05T20:22:49.559Z,24.66
2022-09-05T20:25:19.839Z,24.72
2022-09-05T20:27:59.689Z,25.00
2022-09-05T20:30:35.031Z,24.95
2022-09-05T20:33:06.066Z,24.68
2022-09-05T20:40:06.829Z,24.73
2022-09-05T20:43:24.415Z,24.80
2022-09-05T20:43:27.108Z,24.58
2022-09-05T20:44:22.393Z,24.83
2022-09-05T20:53:09.736Z,24.91
2022-09-05T20:54:13.200Z,24.91
2022-09-05T20:54:18.049Z,25.04
2022-09-05T20:55:45.015Z,24.94
2022-09-05T20:58:14.522Z,25.08
2022-09-05T21:01:20.497Z,25.04
2022-09-05T21:03:45.614Z,25.23
2022-09-05T21:06:21.145Z,25.23
2022-09-05T21:08:52.308Z,25.23
2022-09-05T21:11:29.308Z,24.97
2022-09-05T21:13:57.671Z,24.85
2022-09-05T21:16:28.454Z,25.00
2022-09-05T21:18:55.368Z,24.76
2022-09-05T21:21:28.939Z,24.79
2022-09-05T21:24:26.167Z,24.72
2022-09-05T21:26:53.130Z,24.82
2022-09-05T21:29:27.343Z,24.98
2022-09-05T21:32:01.728Z,24.96
2022-09-05T21:34:31.802Z,24.96
2022-09-05T21:37:07.271Z,24.58
2022-09-05T21:39:46.757Z,24.43
2022-09-05T21:47:33.097Z,24.12
2022-09-05T21:47:42.154Z,23.87
2022-09-05T21:48:04.472Z,23.82
2022-09-05T21:50:46.456Z,23.94
2022-09-05T21:54:54.687Z,23.82
2022-09-05T21:59:30.182Z,23.87
2022-09-05T21:59:37.027Z,23.51
2022-09-05T22:01:53.171Z,23.51
2022-09-05T22:04:22.236Z,23.63
2022-09-05T22:06:49.794Z,23.68
2022-09-05T22:09:19.933Z,23.14
2022-09-05T22:11:50.576Z,23.55
2022-09-05T22:14:19.344Z,22.86
2022-09-05T22:16:47.589Z,22.93
2022-09-05T22:19:27.017Z,22.68
2022-09-05T22:22:16.434Z,23.06
2022-09-05T22:24:52.749Z,23.42
2022-09-05T22:27:20.249Z,22.80
2022-09-05T22:29:51.174Z,22.95
2022-09-05T22:32:35.032Z,22.90
2022-09-05T22:35:26.863Z,23.65
2022-09-05T22:37:59.114Z,23.64
2022-09-05T22:40:28.729Z,23.45
2022-09-05T22:43:00.216Z,23.65
2022-09-05T22:45:28.629Z,23.39
2022-09-05T22:47:55.790Z,23.40
2022-09-05T22:50:23.271Z,23.65
2022-09-05T22:52:50.137Z,23.45
2022-09-05T22:55:19.279Z,23.43
2022-09-05T22:57:46.473Z,23.49
2022-09-05T23:00:13.632Z,23.30
2022-09-05T23:02:40.504Z,23.47
2022-09-05T23:05:09.972Z,23.50
2022-09-05T23:07:37.371Z,23.30
2022-09-05T23:10:04.450Z,23.05
2022-09-05T23:12:35.593Z,22.91
2022-09-05T23:15:02.371Z,22.95
2022-09-05T23:17:29.258Z,23.15
2022-09-05T23:19:56.579Z,23.26
2022-09-05T23:22:23.343Z,23.23
2022-09-05T23:24:50.247Z,23.50
2022-09-05T23:27:17.213Z,23.67
2022-09-05T23:29:44.447Z,23.15
2022-09-05T23:32:11.202Z,23.31
2022-09-05T23:34:38.663Z,23.00
2022-09-05T23:37:08.816Z,23.09
2022-09-05T23:39:35.720Z,22.94
2022-09-05T23:42:02.753Z,22.62
2022-09-05T23:44:29.418Z,22.40
2022-09-05T23:46:56.991Z,22.03
2022-09-05T23:49:23.783Z,22.57
2022-09-05T23:51:50.446Z,22.64
2022-09-05T23:54:17.190Z,21.99
2022-09-05T23:56:44.006Z,22.55
2022-09-05T23:59:11.716Z,22.97
